Time;durP1;ratioP1;P1;durP2;ratioP2;P2;SDS_P1;SDS_P2;PMS_P1;PMS_P2;Temp;Humidity;BMP_temperature;BMP_pressure;BME280_temperature;BME280_humidity;BME280_pressure;Samples;Min_cycle;Max_cycle;Signal;HPM_P1;HPM_P2
2023/07/10 00:00:52;;;;;;;2.50;1.50;;;;;;;23.90;42.43;100413.32;107887;1288;21979;-59
2023/07/10 00:03:19;;;;;;;3.70;1.90;;;;;;;23.84;42.54;100410.50;107985;1288;21992;-66
2023/07/10 00:05:44;;;;;;;4.00;1.90;;;;;;;23.77;42.56;100412.23;106515;1288;1002396;-59
2023/07/10 00:08:10;;;;;;;3.00;1.60;;;;;;;23.69;42.71;100413.14;108063;1288;22017;-66
2023/07/10 00:10:36;;;;;;;4.00;1.40;;;;;;;23.62;42.90;100411.45;108025;1288;21987;-59
2023/07/10 00:13:09;;;;;;;3.40;1.60;;;;;;;23.57;42.83;100406.60;107929;1288;22454;-65
2023/07/10 00:15:35;;;;;;;9.90;1.90;;;;;;;23.55;43.08;100406.67;107911;1288;195292;-59
2023/07/10 00:18:01;;;;;;;4.50;1.80;;;;;;;23.55;43.14;100405.13;108014;1286;22027;-66
2023/07/10 00:20:27;;;;;;;5.70;2.00;;;;;;;23.55;43.17;100403.33;108014;1288;21988;-59
2023/07/10 00:22:53;;;;;;;5.20;2.00;;;;;;;23.54;43.10;100399.12;108004;1288;21986;-60
2023/07/10 00:25:19;;;;;;;4.10;2.00;;;;;;;23.52;43.10;100404.08;107775;1288;22064;-58
2023/07/10 00:27:46;;;;;;;3.80;1.70;;;;;;;23.52;43.16;100402.24;108016;1288;22002;-67
2023/07/10 00:30:18;;;;;;;4.10;1.60;;;;;;;23.50;43.33;100398.42;108072;1280;21992;-67
2023/07/10 00:32:44;;;;;;;3.80;1.60;;;;;;;23.49;43.42;100395.13;107982;1287;21990;-60
2023/07/10 00:35:16;;;;;;;2.70;1.60;;;;;;;23.48;43.59;100396.05;108082;1288;21990;-60
2023/07/10 00:38:01;;;;;;;4.90;2.40;;;;;;;23.48;43.79;100393.41;108002;1280;23609;-60
2023/07/10 00:40:28;;;;;;;3.90;1.60;;;;;;;23.48;43.76;100393.77;107832;1289;22001;-60
2023/07/10 00:43:19;;;;;;;4.70;2.00;;;;;;;23.49;43.93;100392.48;107940;1288;21990;-61
2023/07/10 00:45:45;;;;;;;4.20;2.20;;;;;;;23.49;43.96;100393.02;107869;1288;21988;-60
2023/07/10 00:48:15;;;;;;;5.00;1.60;;;;;;;23.50;43.95;100394.50;108053;1288;22002;-66
2023/07/10 00:50:45;;;;;;;4.10;1.80;;;;;;;23.51;44.06;100392.82;107997;1283;21992;-66
2023/07/10 00:53:35;;;;;;;3.40;1.70;;;;;;;23.53;43.93;100391.94;107892;1289;21996;-60
2023/07/10 00:56:00;;;;;;;4.90;1.80;;;;;;;23.57;43.92;100392.46;107070;1288;1002226;-66
2023/07/10 00:58:37;;;;;;;4.10;1.90;;;;;;;23.59;43.97;100395.85;107809;1288;21999;-66
2023/07/10 01:01:21;;;;;;;2.60;1.70;;;;;;;23.65;43.86;100397.86;107988;1288;22003;-59
2023/07/10 01:03:51;;;;;;;2.60;1.70;;;;;;;23.69;43.85;100399.91;108016;1288;21997;-59
2023/07/10 01:06:19;;;;;;;4.90;1.90;;;;;;;23.70;44.01;100400.19;108060;1288;21998;-66
2023/07/10 01:08:48;;;;;;;3.00;1.60;;;;;;;23.69;43.97;100399.52;107808;1284;21992;-66
2023/07/10 01:11:15;;;;;;;4.60;1.60;;;;;;;23.69;43.90;100404.34;108072;1282;23054;-66
2023/07/10 01:13:41;;;;;;;4.00;1.70;;;;;;;23.71;43.77;100403.48;108088;1277;21990;-59
2023/07/10 01:16:07;;;;;;;4.40;1.50;;;;;;;23.74;43.69;100406.85;108073;1288;22020;-66
2023/07/10 01:18:32;;;;;;;5.40;1.80;;;;;;;23.75;43.92;100404.48;107838;1280;21987;-68
2023/07/10 01:21:30;;;;;;;2.70;1.70;;;;;;;23.75;43.87;100410.23;107924;1279;21998;-64
2023/07/10 01:23:56;;;;;;;4.10;1.90;;;;;;;23.75;44.05;100410.42;108127;1288;21990;-60
2023/07/10 01:26:22;;;;;;;2.30;1.40;;;;;;;23.74;44.00;100409.39;108028;1283;22032;-67
2023/07/10 01:28:48;;;;;;;2.70;1.70;;;;;;;23.74;44.01;100411.15;107807;1286;22047;-59
2023/07/10 01:31:15;;;;;;;7.20;1.70;;;;;;;23.75;43.82;100407.86;108114;1280;21993;-63
2023/07/10 01:33:48;;;;;;;3.70;1.90;;;;;;;23.78;43.76;100406.98;108131;1288;21995;-67
2023/07/10 01:36:15;;;;;;;3.00;1.40;;;;;;;23.80;43.92;100407.00;108056;1288;21989;-60
2023/07/10 01:39:07;;;;;;;3.70;1.70;;;;;;;23.82;43.82;100410.11;107948;1286;21992;-67
2023/07/10 01:41:37;;;;;;;4.10;1.60;;;;;;;23.83;43.73;100406.65;108099;1288;21992;-60
2023/07/10 01:44:12;;;;;;;3.70;1.80;;;;;;;23.81;43.77;100405.36;108135;1288;21990;-61
2023/07/10 01:46:38;;;;;;;4.20;2.00;;;;;;;23.78;43.85;100410.23;108009;1280;22032;-60
2023/07/10 01:49:03;;;;;;;6.70;1.80;;;;;;;23.74;43.97;100407.61;108052;1286;21990;-60
2023/07/10 01:51:29;;;;;;;3.50;1.80;;;;;;;23.71;43.99;100409.77;108028;1288;22011;-67
2023/07/10 01:54:00;;;;;;;3.70;1.60;;;;;;;23.66;44.23;100407.56;108036;1288;21980;-67
2023/07/10 01:56:25;;;;;;;3.20;1.90;;;;;;;23.61;43.97;100405.80;108083;1288;22003;-60
2023/07/10 01:58:52;;;;;;;4.90;2.10;;;;;;;23.58;43.98;100408.48;108012;1288;22281;-67
2023/07/10 02:01:18;;;;;;;6.70;1.70;;;;;;;23.56;44.20;100412.16;107993;1288;21987;-61
2023/07/10 02:03:44;;;;;;;5.50;1.90;;;;;;;23.53;44.13;100414.88;108036;1283;21991;-59
2023/07/10 02:06:10;;;;;;;5.20;1.90;;;;;;;23.50;44.34;100420.33;108022;1280;24008;-59
2023/07/10 02:08:35;;;;;;;4.40;2.00;;;;;;;23.46;44.28;100424.84;108066;1287;21990;-60
2023/07/10 02:11:01;;;;;;;4.60;1.60;;;;;;;23.41;44.33;100427.48;107999;1288;22456;-67
2023/07/10 02:13:27;;;;;;;5.70;1.50;;;;;;;23.33;44.34;100429.66;108147;1286;22183;-68
2023/07/10 02:15:53;;;;;;;3.80;2.10;;;;;;;23.23;44.51;100433.29;107998;1280;21993;-60
2023/07/10 02:18:19;;;;;;;6.50;1.60;;;;;;;23.09;44.88;100440.27;107826;1284;23799;-68
2023/07/10 02:20:45;;;;;;;6.20;1.60;;;;;;;22.89;44.81;100446.50;108010;1280;21999;-61
2023/07/10 02:23:10;;;;;;;3.50;1.70;;;;;;;22.72;44.82;100446.67;107976;1279;21992;-58
2023/07/10 02:25:36;;;;;;;3.40;1.90;;;;;;;22.61;45.03;100444.15;108035;1286;21997;-66
2023/07/10 02:28:01;;;;;;;3.90;1.60;;;;;;;22.58;45.35;100444.32;108012;1280;22027;-58
2023/07/10 02:30:27;;;;;;;4.60;1.90;;;;;;;22.58;45.63;100447.70;108036;1288;22003;-66
2023/07/10 02:32:53;;;;;;;7.30;2.20;;;;;;;22.57;46.03;100444.73;107816;1289;21964;-62
2023/07/10 02:35:19;;;;;;;6.00;1.70;;;;;;;22.56;45.81;100448.55;107802;1289;21990;-60
2023/07/10 02:37:44;;;;;;;4.40;2.00;;;;;;;22.59;45.87;100443.03;107836;1289;21996;-59
2023/07/10 02:40:10;;;;;;;4.80;1.90;;;;;;;22.64;45.89;100442.55;107836;1283;22306;-66
2023/07/10 02:42:35;;;;;;;8.80;2.00;;;;;;;22.67;46.08;100444.14;107812;1284;21985;-59
2023/07/10 02:45:01;;;;;;;5.60;1.90;;;;;;;22.68;46.12;100445.14;108022;1288;21992;-59
2023/07/10 02:47:27;;;;;;;3.50;1.60;;;;;;;22.69;46.19;100444.17;108025;1288;21995;-67
2023/07/10 02:49:53;;;;;;;3.80;1.90;;;;;;;22.71;46.08;100442.27;108059;1287;21991;-60
2023/07/10 02:52:19;;;;;;;4.60;1.80;;;;;;;22.75;46.03;100445.79;108064;1280;22008;-67
2023/07/10 02:54:44;;;;;;;3.60;1.80;;;;;;;22.77;46.21;100445.30;108041;1288;22001;-67
2023/07/10 02:57:10;;;;;;;3.60;2.10;;;;;;;22.76;46.45;100445.70;107997;1288;21990;-67
2023/07/10 02:59:36;;;;;;;5.60;2.10;;;;;;;22.72;46.74;100446.87;107983;1288;22458;-68
2023/07/10 03:02:02;;;;;;;5.80;3.80;;;;;;;22.68;46.70;100445.88;108004;1288;22470;-68
2023/07/10 03:04:27;;;;;;;9.50;2.40;;;;;;;22.68;46.70;100447.30;108056;1280;21995;-59
2023/07/10 03:06:53;;;;;;;8.30;2.10;;;;;;;22.72;47.05;100448.83;107996;1286;21990;-67
2023/07/10 03:09:19;;;;;;;7.60;2.00;;;;;;;22.76;46.99;100445.92;108012;1288;21991;-68
2023/07/10 03:11:45;;;;;;;5.90;2.30;;;;;;;22.79;46.95;100445.35;107987;1288;21988;-59
2023/07/10 03:14:10;;;;;;;4.60;1.90;;;;;;;22.84;47.12;100448.44;108011;1286;21985;-67
2023/07/10 03:16:36;;;;;;;4.10;1.70;;;;;;;22.88;47.23;100451.59;108025;1288;22001;-59
2023/07/10 03:19:02;;;;;;;6.20;1.90;;;;;;;22.91;47.22;100451.59;108021;1288;22208;-68
2023/07/10 03:21:27;;;;;;;4.80;2.30;;;;;;;22.94;47.36;100446.05;108047;1281;22002;-59
2023/07/10 03:23:53;;;;;;;3.40;1.90;;;;;;;22.97;47.40;100447.96;108003;1287;21995;-60
2023/07/10 03:26:21;;;;;;;6.90;2.30;;;;;;;23.02;47.52;100450.01;108001;1288;22461;-60
2023/07/10 03:28:50;;;;;;;6.10;1.90;;;;;;;23.08;47.66;100453.96;107807;1286;21990;-68
2023/07/10 03:31:16;;;;;;;8.20;2.20;;;;;;;23.11;47.73;100451.97;107778;1288;21993;-60
2023/07/10 03:33:41;;;;;;;6.90;2.00;;;;;;;23.14;47.74;100450.69;108037;1288;21992;-67
2023/07/10 03:36:07;;;;;;;10.00;3.30;;;;;;;23.18;47.90;100451.34;107997;1280;21991;-68
2023/07/10 03:38:33;;;;;;;9.60;2.30;;;;;;;23.22;48.08;100450.20;108045;1288;21995;-67
2023/07/10 03:40:59;;;;;;;8.90;2.60;;;;;;;23.27;48.18;100450.56;108030;1288;22000;-60
2023/07/10 03:43:26;;;;;;;7.60;2.30;;;;;;;23.37;48.60;100453.91;108047;1283;22002;-66
2023/07/10 03:45:53;;;;;;;6.20;2.10;;;;;;;23.48;48.52;100454.24;108154;1288;21992;-68
2023/07/10 03:48:18;;;;;;;8.90;2.30;;;;;;;23.58;48.55;100454.67;108067;1280;22010;-69
2023/07/10 03:50:44;;;;;;;4.30;2.20;;;;;;;23.67;48.79;100452.11;107997;1288;22032;-59
2023/07/10 03:53:10;;;;;;;4.90;2.10;;;;;;;23.80;48.53;100450.92;108013;1280;22002;-68
2023/07/10 03:55:35;;;;;;;5.80;2.50;;;;;;;23.93;48.48;100454.55;107987;1283;22003;-68
2023/07/10 03:58:01;;;;;;;5.60;2.00;;;;;;;24.05;48.24;100451.58;107952;1288;22001;-67
2023/07/10 04:00:27;;;;;;;3.50;1.90;;;;;;;24.17;48.21;100451.34;107994;1288;22000;-68
2023/07/10 04:02:52;;;;;;;3.70;2.10;;;;;;;24.28;48.30;100452.59;108011;1283;23032;-68
2023/07/10 04:05:18;;;;;;;3.90;1.90;;;;;;;24.38;48.24;100452.73;107977;1288;21997;-67
2023/07/10 04:07:44;;;;;;;5.70;2.60;;;;;;;24.51;48.23;100448.98;107996;1288;21989;-68
2023/07/10 04:10:10;;;;;;;9.30;3.40;;;;;;;24.65;48.07;100448.73;108048;1288;21989;-59
2023/07/10 04:12:40;;;;;;;4.90;2.50;;;;;;;24.80;47.89;100450.75;108071;1288;21994;-68
2023/07/10 04:15:06;;;;;;;4.70;2.60;;;;;;;24.97;47.59;100447.40;108047;1288;21990;-68
2023/07/10 04:17:32;;;;;;;5.90;2.30;;;;;;;25.15;47.25;100447.20;108110;1288;21990;-68
2023/07/10 04:19:58;;;;;;;5.10;2.40;;;;;;;25.30;47.03;100445.08;108013;1288;21994;-68
2023/07/10 04:22:24;;;;;;;5.90;2.40;;;;;;;25.45;47.10;100445.02;108044;1288;22455;-60
2023/07/10 04:24:49;;;;;;;5.70;2.70;;;;;;;25.61;46.73;100442.98;108050;1288;22030;-67
2023/07/10 04:27:15;;;;;;;5.30;2.70;;;;;;;25.77;46.60;100442.65;107944;1288;21992;-69
2023/07/10 04:29:41;;;;;;;4.40;2.60;;;;;;;25.93;46.29;100443.82;107983;1288;22460;-60
2023/07/10 04:32:08;;;;;;;4.10;2.20;;;;;;;26.10;45.79;100445.79;108010;1288;21990;-68
2023/07/10 04:34:33;;;;;;;5.20;2.70;;;;;;;26.27;45.53;100444.50;108055;1288;22460;-60
2023/07/10 04:36:59;;;;;;;4.40;2.00;;;;;;;26.42;45.18;100444.09;108041;1288;21987;-68
2023/07/10 04:39:25;;;;;;;4.60;2.10;;;;;;;26.59;45.14;100442.59;108024;1283;22000;-60
2023/07/10 04:41:50;;;;;;;4.80;2.50;;;;;;;26.72;44.74;100439.59;107881;1288;21989;-60
2023/07/10 04:44:16;;;;;;;5.20;2.40;;;;;;;26.83;44.60;100439.46;107952;1280;22068;-69
2023/07/10 04:46:41;;;;;;;6.00;2.40;;;;;;;26.93;43.98;100440.27;108006;1288;22061;-69
2023/07/10 04:49:07;;;;;;;5.50;2.10;;;;;;;27.04;43.63;100438.52;107993;1288;22024;-69
2023/07/10 04:51:33;;;;;;;4.00;2.00;;;;;;;27.13;43.29;100439.19;107975;1286;21987;-60
2023/07/10 04:53:58;;;;;;;3.60;2.20;;;;;;;27.22;43.08;100436.89;107801;1285;21994;-60
2023/07/10 04:56:24;;;;;;;7.00;2.30;;;;;;;27.34;43.13;100436.77;107996;1288;21979;-66
2023/07/10 04:58:51;;;;;;;5.00;2.10;;;;;;;27.49;43.23;100436.91;108015;1287;21999;-60
2023/07/10 05:01:19;;;;;;;4.30;2.10;;;;;;;27.60;43.13;100437.75;108087;1288;21997;-60
2023/07/10 05:03:45;;;;;;;4.80;2.50;;;;;;;27.71;43.22;100438.64;108082;1283;21995;-69
2023/07/10 05:06:10;;;;;;;5.60;2.20;;;;;;;27.81;42.73;100441.04;108052;1288;21991;-60
2023/07/10 05:08:36;;;;;;;6.00;2.20;;;;;;;27.92;42.43;100441.98;108025;1288;21989;-68
2023/07/10 05:11:02;;;;;;;6.20;1.90;;;;;;;28.05;42.52;100443.75;108027;1288;21993;-60
2023/07/10 05:13:28;;;;;;;4.10;2.10;;;;;;;28.17;42.40;100441.82;108022;1287;22007;-60
2023/07/10 05:15:58;;;;;;;3.50;1.90;;;;;;;28.27;42.38;100442.66;108062;1288;22027;-60
2023/07/10 05:18:25;;;;;;;3.90;2.20;;;;;;;28.39;41.95;100440.91;108064;1288;21965;-59
2023/07/10 05:20:51;;;;;;;4.00;1.90;;;;;;;28.55;42.20;100434.80;108022;1288;22456;-61
2023/07/10 05:23:17;;;;;;;4.40;1.80;;;;;;;28.71;41.72;100433.05;108113;1284;21998;-71
2023/07/10 05:26:03;;;;;;;3.00;1.80;;;;;;;28.91;41.66;100433.85;108020;1283;22001;-69
2023/07/10 05:28:30;;;;;;;4.10;2.10;;;;;;;29.14;41.54;100435.40;108051;1288;21989;-60
2023/07/10 05:30:58;;;;;;;7.10;2.20;;;;;;;29.25;41.05;100435.12;107874;1289;22000;-60
2023/07/10 05:33:23;;;;;;;3.30;1.80;;;;;;;29.32;40.71;100434.85;107823;1280;22459;-60
2023/07/10 05:35:59;;;;;;;4.00;1.90;;;;;;;29.45;40.86;100432.08;107904;1289;21995;-67
2023/07/10 05:38:30;;;;;;;5.30;2.10;;;;;;;29.65;40.44;100434.94;107868;1280;21994;-60
2023/07/10 05:40:56;;;;;;;5.40;2.20;;;;;;;29.81;40.28;100433.14;107896;1280;21997;-60
2023/07/10 05:43:22;;;;;;;4.30;1.80;;;;;;;29.96;39.88;100428.87;107831;1289;21995;-69
2023/07/10 05:45:48;;;;;;;6.20;1.90;;;;;;;30.11;40.07;100432.60;107980;1288;21997;-69
2023/07/10 05:48:14;;;;;;;6.70;2.40;;;;;;;30.32;40.18;100429.73;108638;1288;24334;-61
2023/07/10 05:50:42;;;;;;;4.50;2.20;;;;;;;30.51;39.42;100427.74;108039;1288;22001;-70
2023/07/10 05:53:08;;;;;;;3.10;1.90;;;;;;;30.65;38.82;100424.73;108015;1285;21992;-69
2023/07/10 05:55:33;;;;;;;5.90;1.80;;;;;;;30.79;38.78;100427.80;108004;1288;22001;-68
2023/07/10 05:57:59;;;;;;;5.20;1.70;;;;;;;30.91;38.82;100430.27;107933;1288;21985;-60
2023/07/10 06:00:25;;;;;;;6.10;2.20;;;;;;;31.05;38.72;100427.39;108005;1288;21992;-59
2023/07/10 06:02:51;;;;;;;4.30;2.10;;;;;;;31.23;38.11;100425.67;107957;1288;22046;-73
2023/07/10 06:05:17;;;;;;;4.00;2.20;;;;;;;31.40;37.58;100425.21;107996;1288;22005;-69
2023/07/10 06:07:42;;;;;;;3.60;1.90;;;;;;;31.51;36.80;100420.73;107940;1280;21990;-69
2023/07/10 06:10:08;;;;;;;4.40;2.00;;;;;;;31.59;36.75;100420.64;108016;1288;22008;-60
2023/07/10 06:12:34;;;;;;;2.90;2.10;;;;;;;31.69;36.65;100424.95;108023;1288;22027;-64
2023/07/10 06:14:59;;;;;;;3.10;1.80;;;;;;;31.82;36.88;100427.43;108020;1288;22000;-68
2023/07/10 06:17:25;;;;;;;4.90;1.80;;;;;;;32.00;37.12;100427.00;108043;1288;22027;-60
2023/07/10 06:19:51;;;;;;;3.30;1.70;;;;;;;32.23;37.05;100427.62;108079;1288;21977;-61
2023/07/10 06:22:17;;;;;;;5.10;1.90;;;;;;;32.42;36.69;100427.86;108090;1288;21993;-69
2023/07/10 06:24:42;;;;;;;2.90;1.80;;;;;;;32.51;36.25;100427.80;108066;1288;22027;-60
2023/07/10 06:27:10;;;;;;;5.40;2.00;;;;;;;32.55;35.67;100428.17;108033;1286;22026;-61
2023/07/10 06:29:36;;;;;;;3.50;1.80;;;;;;;32.66;35.68;100424.12;108011;1288;21979;-68
2023/07/10 06:32:03;;;;;;;4.10;1.90;;;;;;;32.77;35.08;100422.81;107989;1287;21992;-61
2023/07/10 06:34:28;;;;;;;2.90;1.60;;;;;;;32.95;35.52;100421.81;108053;1288;21992;-69
2023/07/10 06:36:54;;;;;;;1.90;1.40;;;;;;;33.03;34.95;100426.23;108016;1288;21992;-61
2023/07/10 06:39:20;;;;;;;2.40;1.50;;;;;;;33.08;34.88;100425.34;108026;1288;21992;-60
2023/07/10 06:41:46;;;;;;;2.70;1.50;;;;;;;33.13;34.37;100427.37;108028;1288;22047;-67
2023/07/10 06:44:12;;;;;;;8.40;2.00;;;;;;;33.18;34.46;100425.46;107890;1289;21997;-62
2023/07/10 06:46:38;;;;;;;5.10;1.60;;;;;;;33.16;33.97;100427.89;107890;1289;21993;-69
2023/07/10 06:49:03;;;;;;;3.30;1.50;;;;;;;33.15;33.75;100426.70;107819;1286;23719;-60
2023/07/10 06:51:29;;;;;;;3.80;1.60;;;;;;;33.29;33.74;100425.94;107834;1281;22051;-61
2023/07/10 06:53:55;;;;;;;2.40;1.60;;;;;;;33.45;34.12;100424.59;107843;1289;22035;-61
2023/07/10 06:56:20;;;;;;;4.90;1.80;;;;;;;33.63;33.53;100423.43;107919;1288;24061;-67
2023/07/10 06:58:46;;;;;;;4.30;1.50;;;;;;;33.71;33.42;100424.02;108105;1287;21996;-60
2023/07/10 07:01:12;;;;;;;5.60;1.70;;;;;;;33.76;33.76;100425.77;108036;1287;21987;-67
2023/07/10 07:03:40;;;;;;;3.70;1.90;;;;;;;33.88;33.76;100426.38;108081;1288;22050;-67
2023/07/10 07:06:06;;;;;;;3.40;1.70;;;;;;;33.97;32.83;100427.21;108033;1283;21996;-67
2023/07/10 07:08:33;;;;;;;3.30;1.80;;;;;;;34.09;33.21;100429.50;108065;1288;21990;-66
2023/07/10 07:10:59;;;;;;;3.20;1.50;;;;;;;34.19;32.98;100423.45;107990;1278;22002;-61
2023/07/10 07:13:25;;;;;;;3.40;1.40;;;;;;;34.20;32.75;100421.33;108012;1284;23638;-66
2023/07/10 07:15:54;;;;;;;5.00;1.80;;;;;;;34.17;32.22;100424.27;108103;1288;22458;-66
2023/07/10 07:18:21;;;;;;;3.30;1.70;;;;;;;34.23;32.20;100424.77;108061;1288;21993;-65
2023/07/10 07:20:47;;;;;;;4.30;1.50;;;;;;;34.30;31.94;100422.98;108051;1288;22458;-61
2023/07/10 07:23:12;;;;;;;5.20;1.80;;;;;;;34.27;31.53;100421.70;108043;1288;21994;-64
2023/07/10 07:25:39;;;;;;;4.30;1.80;;;;;;;34.34;32.01;100425.60;108028;1280;22109;-60
2023/07/10 07:28:05;;;;;;;4.20;1.60;;;;;;;34.46;31.58;100426.27;108041;1288;21996;-67
2023/07/10 07:30:31;;;;;;;4.40;1.90;;;;;;;34.52;31.04;100421.59;108041;1288;22015;-65
2023/07/10 07:32:58;;;;;;;3.20;1.80;;;;;;;34.62;31.14;100422.83;108020;1280;21997;-61
2023/07/10 07:35:23;;;;;;;5.10;1.80;;;;;;;34.77;31.25;100423.28;108033;1286;21964;-60
2023/07/10 07:37:49;;;;;;;3.30;1.50;;;;;;;34.82;29.72;100420.02;108047;1288;21993;-67
2023/07/10 07:40:16;;;;;;;3.00;1.50;;;;;;;34.80;29.74;100421.19;108034;1283;21990;-62
2023/07/10 07:42:47;;;;;;;1.90;1.30;;;;;;;34.82;30.11;100416.57;108054;1288;21995;-67
2023/07/10 07:45:13;;;;;;;10.50;2.40;;;;;;;34.91;29.77;100407.67;108051;1288;21986;-61
2023/07/10 07:47:40;;;;;;;8.20;2.00;;;;;;;35.02;29.76;100402.86;108110;1288;22000;-61
2023/07/10 07:50:07;;;;;;;15.90;2.40;;;;;;;35.13;29.64;100411.55;108045;1284;21993;-64
2023/07/10 07:52:34;;;;;;;4.00;1.80;;;;;;;35.44;30.06;100405.24;108116;1288;21999;-62
2023/07/10 07:54:59;;;;;;;3.20;1.40;;;;;;;35.63;28.94;100403.20;108012;1288;21994;-62
2023/07/10 07:57:25;;;;;;;32.10;4.50;;;;;;;35.68;28.84;100397.08;108025;1288;22002;-62
2023/07/10 07:59:51;;;;;;;3.60;1.50;;;;;;;35.63;27.95;100393.70;107961;1288;21992;-67
2023/07/10 08:02:17;;;;;;;4.00;1.40;;;;;;;35.71;29.15;100394.05;108012;1287;21981;-62
2023/07/10 08:04:43;;;;;;;2.70;1.50;;;;;;;35.71;28.60;100394.38;108016;1288;21995;-62
2023/07/10 08:07:09;;;;;;;4.10;1.50;;;;;;;35.70;29.14;100393.10;108010;1288;21984;-66
2023/07/10 08:09:35;;;;;;;2.90;1.40;;;;;;;35.79;29.37;100395.10;108011;1288;21986;-62
2023/07/10 08:12:01;;;;;;;4.20;1.40;;;;;;;35.92;29.23;100394.82;108100;1288;21989;-63
2023/07/10 08:14:28;;;;;;;2.90;1.80;;;;;;;36.03;27.94;100392.10;108035;1288;21991;-68
2023/07/10 08:16:54;;;;;;;4.20;1.60;;;;;;;36.14;28.05;100387.48;108009;1288;21993;-67
2023/07/10 08:19:19;;;;;;;2.60;1.30;;;;;;;36.24;27.60;100384.98;107997;1287;22164;-67
2023/07/10 08:21:46;;;;;;;3.40;1.80;;;;;;;36.40;26.65;100390.21;108002;1286;21998;-67
2023/07/10 08:24:11;;;;;;;3.40;2.10;;;;;;;36.56;27.08;100391.39;107990;1288;21998;-62
2023/07/10 08:26:37;;;;;;;2.90;1.30;;;;;;;36.68;27.22;100388.30;108004;1288;21993;-66
2023/07/10 08:29:41;;;;;;;3.30;1.20;;;;;;;36.81;26.70;100386.48;107967;1286;22003;-67
2023/07/10 08:32:08;;;;;;;2.40;1.40;;;;;;;36.96;27.21;100381.83;107288;1296;22035;-67
2023/07/10 08:34:34;;;;;;;4.50;1.50;;;;;;;36.92;25.99;100382.34;107282;1292;22011;-64
2023/07/10 08:37:01;;;;;;;4.50;1.80;;;;;;;36.83;25.81;100385.16;107585;1288;22000;-66
2023/07/10 08:39:26;;;;;;;2.30;1.30;;;;;;;36.77;26.07;100384.07;107988;1288;21993;-63
2023/07/10 08:41:54;;;;;;;8.90;2.00;;;;;;;36.67;26.47;100384.13;107991;1288;21992;-64
2023/07/10 08:44:20;;;;;;;4.00;1.30;;;;;;;36.71;26.64;100385.61;108045;1286;22000;-71
2023/07/10 08:46:46;;;;;;;3.30;1.20;;;;;;;36.75;26.36;100388.47;108074;1288;21996;-63
2023/07/10 08:49:26;;;;;;;2.80;1.50;;;;;;;36.89;26.88;100386.38;107905;1288;21978;-62
2023/07/10 08:52:12;;;;;;;2.60;1.30;;;;;;;37.01;25.53;100384.73;107931;1288;21992;-69
2023/07/10 08:54:38;;;;;;;3.30;1.40;;;;;;;37.11;25.48;100385.83;108062;1288;21997;-66
2023/07/10 08:57:26;;;;;;;2.10;1.20;;;;;;;37.28;26.37;100386.48;107931;1288;22003;-68
2023/07/10 09:00:10;;;;;;;3.70;1.40;;;;;;;37.43;25.51;100384.55;108046;1288;21995;-69
2023/07/10 09:02:37;;;;;;;4.30;1.50;;;;;;;37.29;24.25;100391.14;108044;1284;21992;-71
2023/07/10 09:05:05;;;;;;;3.20;1.30;;;;;;;37.07;24.80;100384.63;108046;1288;21989;-68
2023/07/10 09:07:35;;;;;;;5.10;2.10;;;;;;;36.97;24.18;100380.53;109991;1284;21893;-70
2023/07/10 09:10:02;;;;;;;4.00;1.50;;;;;;;37.07;24.08;100377.70;108091;1283;21985;-63
2023/07/10 09:12:39;;;;;;;2.70;1.50;;;;;;;37.21;23.99;100378.16;107864;1288;22004;-69
2023/07/10 09:15:17;;;;;;;4.50;1.30;;;;;;;37.36;24.01;100383.10;108046;1288;21981;-62
2023/07/10 09:17:55;;;;;;;1.90;1.40;;;;;;;37.50;24.06;100378.00;108015;1288;21998;-68
2023/07/10 09:20:22;;;;;;;2.40;1.40;;;;;;;37.73;24.71;100376.04;108071;1288;22086;-62
2023/07/10 09:22:58;;;;;;;2.70;1.60;;;;;;;37.74;23.02;100374.40;108089;1288;21994;-69
2023/07/10 09:25:24;;;;;;;2.60;1.30;;;;;;;37.54;23.42;100372.77;107831;1289;22005;-62
2023/07/10 09:27:50;;;;;;;3.70;1.60;;;;;;;37.49;24.26;100374.36;107835;1288;22004;-62
2023/07/10 09:30:26;;;;;;;2.60;1.10;;;;;;;37.30;23.59;100377.61;107991;1288;21993;-62
2023/07/10 09:33:13;;;;;;;6.40;1.80;;;;;;;36.90;23.83;100375.50;107800;1288;21987;-69
2023/07/10 09:35:41;;;;;;;5.50;1.50;;;;;;;36.69;24.45;100371.08;108047;1288;21992;-67
2023/07/10 09:38:10;;;;;;;2.40;1.30;;;;;;;36.77;24.49;100363.54;108070;1288;22026;-62
2023/07/10 09:40:37;;;;;;;3.20;1.60;;;;;;;36.95;24.41;100365.53;108017;1288;22790;-61
2023/07/10 09:43:12;;;;;;;2.40;1.30;;;;;;;37.15;24.66;100363.65;108021;1276;22867;-67
2023/07/10 09:45:45;;;;;;;2.80;1.30;;;;;;;37.46;24.83;100360.46;108047;1288;22075;-68
2023/07/10 09:48:34;;;;;;;2.40;1.50;;;;;;;37.61;23.86;100359.73;108045;1288;21992;-71
2023/07/10 09:51:07;;;;;;;1.70;1.40;;;;;;;37.39;23.15;100362.63;107949;1288;22746;-69
2023/07/10 09:53:45;;;;;;;3.70;1.50;;;;;;;37.09;23.81;100363.58;108030;1288;21996;-62
2023/07/10 09:56:25;;;;;;;4.10;1.80;;;;;;;36.98;23.78;100357.48;107971;1288;21992;-68
2023/07/10 09:58:54;;;;;;;4.80;1.60;;;;;;;37.05;24.11;100353.92;107868;1289;22008;-68
2023/07/10 10:01:24;;;;;;;2.20;1.00;;;;;;;37.28;24.03;100353.23;107906;1286;21974;-62
2023/07/10 10:03:51;;;;;;;;;;;;;;;37.49;23.76;100353.45;108036;1288;21975;-61
2023/07/10 10:06:24;;;;;;;2.30;1.40;;;;;;;37.50;23.77;100354.23;108025;1281;21999;-70
2023/07/10 10:08:51;;;;;;;1.90;1.30;;;;;;;37.47;24.15;100359.22;108060;1287;21993;-70
2023/07/10 10:11:17;;;;;;;2.60;1.20;;;;;;;37.27;23.77;100357.31;107976;1288;22007;-68
2023/07/10 10:13:47;;;;;;;2.30;1.30;;;;;;;37.18;24.01;100353.48;107827;1288;22025;-66
2023/07/10 10:16:30;;;;;;;3.10;1.40;;;;;;;37.22;23.68;100355.40;108101;1288;21990;-62
2023/07/10 10:19:17;;;;;;;5.00;1.70;;;;;;;37.20;23.94;100350.20;108010;1288;22000;-62
2023/07/10 10:21:43;;;;;;;3.10;1.40;;;;;;;37.27;23.48;100344.23;108018;1288;22046;-63
2023/07/10 10:24:12;;;;;;;4.10;1.70;;;;;;;37.28;23.43;100346.64;108003;1283;21993;-62
2023/07/10 10:26:40;;;;;;;6.80;1.90;;;;;;;37.18;23.27;100351.52;107845;1288;23833;-68
2023/07/10 10:29:24;;;;;;;4.20;1.40;;;;;;;37.08;23.26;100350.92;108062;1288;21995;-63
2023/07/10 10:31:55;;;;;;;3.80;1.80;;;;;;;37.11;23.52;100352.58;107915;1288;21993;-68
2023/07/10 10:34:48;;;;;;;3.50;1.60;;;;;;;37.25;23.80;100353.92;107839;1289;22035;-70
2023/07/10 10:37:33;;;;;;;3.40;1.70;;;;;;;37.48;23.63;100350.73;107917;1289;21993;-62
2023/07/10 10:39:59;;;;;;;5.60;1.90;;;;;;;37.55;23.45;100350.80;107912;1289;22015;-61
2023/07/10 10:42:41;;;;;;;4.80;1.40;;;;;;;37.54;24.03;100346.31;107885;1289;22081;-61
2023/07/10 10:45:15;;;;;;;3.10;1.50;;;;;;;37.54;23.99;100343.15;107705;1289;23053;-68
2023/07/10 10:47:48;;;;;;;4.00;1.90;;;;;;;37.46;24.03;100340.49;107897;1289;21996;-63
2023/07/10 10:50:19;;;;;;;4.10;1.90;;;;;;;37.55;23.93;100336.61;107890;1283;21995;-62
2023/07/10 10:52:53;;;;;;;5.40;1.90;;;;;;;37.63;23.52;100330.94;107853;1289;22037;-69
2023/07/10 10:55:41;;;;;;;4.30;1.50;;;;;;;37.71;22.97;100327.92;107851;1289;22072;-63
2023/07/10 10:58:18;;;;;;;2.80;1.60;;;;;;;37.76;22.75;100324.20;107863;1289;21998;-69
2023/07/10 11:00:46;;;;;;;2.70;1.50;;;;;;;37.92;23.42;100314.67;107862;1283;22029;-63
2023/07/10 11:03:15;;;;;;;2.50;1.50;;;;;;;38.10;23.10;100314.00;107799;1289;21989;-63
2023/07/10 11:05:44;;;;;;;4.50;1.40;;;;;;;38.22;22.74;100315.34;107823;1289;22462;-69
2023/07/10 11:08:20;;;;;;;2.90;1.50;;;;;;;38.33;22.80;100309.27;108790;1289;21996;-69
2023/07/10 11:10:46;;;;;;;17.90;2.80;;;;;;;38.45;22.83;100309.17;107891;1280;22062;-62
2023/07/10 11:13:18;;;;;;;7.30;2.30;;;;;;;38.56;22.64;100314.67;107751;1288;22032;-70
2023/07/10 11:15:43;;;;;;;4.60;1.80;;;;;;;38.73;22.68;100315.20;107834;1281;22742;-62
2023/07/10 11:18:09;;;;;;;3.50;1.60;;;;;;;38.95;22.88;100309.58;107747;1286;22000;-64
2023/07/10 11:20:36;;;;;;;7.20;1.80;;;;;;;39.04;22.26;100314.88;107943;1288;21997;-68
2023/07/10 11:23:04;;;;;;;2.80;1.70;;;;;;;39.05;22.70;100314.25;107657;1288;22000;-63